Time,TemperatureF,DewpointF,PressureIn,WindDirection,WindDirectionDegrees,WindSpeedMPH,WindSpeedGustMPH,Humidity,HourlyPrecipIn,Conditions,Clouds,dailyrainin,SoftwareType,DateUTC
2013-02-04 00:02:00,15.0,9.0,-100.00,East,85,1.0,2.0,75,-99.99,,,-99.99,,2013-02-04 06:02:00,
2013-02-04 00:10:00,15.0,10.0,-100.00,East,90,2.0,4.0,79,-99.99,,,-99.99,,2013-02-04 06:10:00,
2013-02-04 00:32:00,15.0,10.0,-100.00,East,90,2.0,4.0,79,-99.99,,,-99.99,,2013-02-04 06:32:00,
2013-02-04 00:42:00,15.0,10.0,-100.00,East,90,2.0,4.0,79,-99.99,,,-99.99,,2013-02-04 06:42:00,
2013-02-04 00:52:00,15.0,10.0,-100.00,East,90,2.0,4.0,79,-99.99,,,-99.99,,2013-02-04 06:52:00,
2013-02-04 01:02:00,15.0,10.0,-100.00,East,90,2.0,4.0,79,-99.99,,,-99.99,,2013-02-04 07:02:00,
2013-02-04 01:10:00,15.0,11.0,-100.00,East,90,2.0,5.0,81,-99.99,,,-99.99,,2013-02-04 07:10:00,
2013-02-04 01:32:00,15.0,11.0,-100.00,East,90,2.0,5.0,81,-99.99,,,-99.99,,2013-02-04 07:32:00,
2013-02-04 01:42:00,15.0,11.0,-100.00,East,90,2.0,5.0,81,-99.99,,,-99.99,,2013-02-04 07:42:00,
2013-02-04 01:52:00,15.0,11.0,-100.00,East,90,2.0,5.0,81,-99.99,,,-99.99,,2013-02-04 07:52:00,
2013-02-04 02:01:00,15.0,11.0,-100.00,East,90,2.0,5.0,81,-99.99,,,-99.99,,2013-02-04 08:01:00,
2013-02-04 05:33:00,15.0,10.0,-100.00,ENE,75,2.0,9.0,82,-99.99,,,-99.99,,2013-02-04 11:33:00,
2013-02-04 05:42:00,15.0,10.0,-100.00,ENE,75,2.0,9.0,82,-99.99,,,-99.99,,2013-02-04 11:42:00,
2013-02-04 05:52:00,15.0,10.0,-100.00,ENE,75,2.0,9.0,82,-99.99,,,-99.99,,2013-02-04 11:52:00,
2013-02-04 06:02:00,15.0,10.0,-100.00,ENE,75,2.0,9.0,82,-99.99,,,-99.99,,2013-02-04 12:02:00,
2013-02-04 06:33:00,14.0,9.0,-100.00,NNE,15,2.0,11.0,82,-99.99,,,-99.99,,2013-02-04 12:33:00,
2013-02-04 06:42:00,14.0,9.0,-100.00,NNE,15,2.0,11.0,82,-99.99,,,-99.99,,2013-02-04 12:42:00,
2013-02-04 06:53:00,14.0,9.0,-100.00,NNE,15,2.0,11.0,82,-99.99,,,-99.99,,2013-02-04 12:53:00,
2013-02-04 07:02:00,14.0,9.0,-100.00,NNE,15,2.0,11.0,82,-99.99,,,-99.99,,2013-02-04 13:02:00,
2013-02-04 07:33:00,13.0,8.0,-100.00,NE,45,6.0,12.0,81,-99.99,,,-99.99,,2013-02-04 13:33:00,
2013-02-04 07:42:00,13.0,8.0,-100.00,NE,45,6.0,12.0,81,-99.99,,,-99.99,,2013-02-04 13:42:00,
2013-02-04 07:52:00,13.0,8.0,-100.00,NE,45,6.0,12.0,81,-99.99,,,-99.99,,2013-02-04 13:52:00,
2013-02-04 08:03:00,13.0,8.0,-100.00,NE,45,6.0,12.0,81,-99.99,,,-99.99,,2013-02-04 14:03:00,
2013-02-04 09:33:00,14.0,8.0,-100.00,NNE,30,6.0,14.0,76,-99.99,,,-99.99,,2013-02-04 15:33:00,
2013-02-04 09:43:00,14.0,8.0,-100.00,NNE,30,6.0,14.0,76,-99.99,,,-99.99,,2013-02-04 15:43:00,
2013-02-04 09:53:00,14.0,8.0,-100.00,NNE,30,6.0,14.0,76,-99.99,,,-99.99,,2013-02-04 15:53:00,
2013-02-04 10:03:00,14.0,8.0,-100.00,NNE,30,6.0,14.0,76,-99.99,,,-99.99,,2013-02-04 16:03:00,
2013-02-04 11:32:00,17.0,8.0,-100.00,North,0,7.0,12.0,66,-99.99,,,-99.99,,2013-02-04 17:32:00,
2013-02-04 11:42:00,17.0,8.0,-100.00,North,0,7.0,12.0,66,-99.99,,,-99.99,,2013-02-04 17:42:00,
2013-02-04 11:52:00,17.0,8.0,-100.00,North,0,7.0,12.0,66,-99.99,,,-99.99,,2013-02-04 17:52:00,
2013-02-04 12:03:00,17.0,8.0,-100.00,North,0,7.0,12.0,66,-99.99,,,-99.99,,2013-02-04 18:03:00,
2013-02-04 12:33:00,17.0,7.0,-100.00,North,10,6.0,14.0,65,-99.99,,,-99.99,,2013-02-04 18:33:00,
2013-02-04 12:42:00,17.0,7.0,-100.00,North,10,6.0,14.0,65,-99.99,,,-99.99,,2013-02-04 18:42:00,
2013-02-04 12:52:00,17.0,7.0,-100.00,North,10,6.0,14.0,65,-99.99,,,-99.99,,2013-02-04 18:52:00,
2013-02-04 13:02:00,17.0,7.0,-100.00,North,10,6.0,14.0,65,-99.99,,,-99.99,,2013-02-04 19:02:00,
2013-02-04 13:32:00,20.0,8.0,-100.00,North,0,4.0,12.0,59,-99.99,,,-99.99,,2013-02-04 19:32:00,
2013-02-04 13:42:00,20.0,8.0,-100.00,North,0,4.0,12.0,59,-99.99,,,-99.99,,2013-02-04 19:42:00,
2013-02-04 13:52:00,20.0,8.0,-100.00,North,0,4.0,12.0,59,-99.99,,,-99.99,,2013-02-04 19:52:00,
2013-02-04 14:02:00,20.0,8.0,-100.00,North,0,4.0,12.0,59,-99.99,,,-99.99,,2013-02-04 20:02:00,
2013-02-04 14:32:00,23.0,7.0,-100.00,NNE,15,4.0,10.0,50,-99.99,,,-99.99,,2013-02-04 20:32:00,
2013-02-04 14:42:00,23.0,7.0,-100.00,NNE,15,4.0,10.0,50,-99.99,,,-99.99,,2013-02-04 20:42:00,
2013-02-04 14:52:00,23.0,7.0,-100.00,NNE,15,4.0,10.0,50,-99.99,,,-99.99,,2013-02-04 20:52:00,
2013-02-04 15:02:00,23.0,7.0,-100.00,NNE,15,4.0,10.0,50,-99.99,,,-99.99,,2013-02-04 21:02:00,
2013-02-04 16:33:00,20.0,3.0,-100.00,NNW,335,4.0,8.0,49,-99.99,,,-99.99,,2013-02-04 22:33:00,
2013-02-04 16:42:00,20.0,3.0,-100.00,NNW,335,4.0,8.0,49,-99.99,,,-99.99,,2013-02-04 22:42:00,
2013-02-04 16:52:00,20.0,3.0,-100.00,NNW,335,4.0,8.0,49,-99.99,,,-99.99,,2013-02-04 22:52:00,
2013-02-04 17:01:00,20.0,3.0,-100.00,NNW,335,4.0,8.0,49,-99.99,,,-99.99,,2013-02-04 23:01:00,
2013-02-04 17:10:00,15.0,2.0,-100.00,NW,310,1.0,4.0,55,-99.99,,,-99.99,,2013-02-04 23:10:00,
2013-02-04 17:32:00,15.0,2.0,-100.00,NW,310,1.0,4.0,55,-99.99,,,-99.99,,2013-02-04 23:32:00,
2013-02-04 17:42:00,15.0,2.0,-100.00,NW,310,1.0,4.0,55,-99.99,,,-99.99,,2013-02-04 23:42:00,
2013-02-04 17:52:00,15.0,2.0,-100.00,NW,310,1.0,4.0,55,-99.99,,,-99.99,,2013-02-04 23:52:00,
2013-02-04 18:01:00,15.0,2.0,-100.00,NW,310,1.0,4.0,55,-99.99,,,-99.99,,2013-02-05 00:01:00,
2013-02-04 18:32:00,9.0,-1.0,-100.00,East,90,0.0,1.0,61,-99.99,,,-99.99,,2013-02-05 00:32:00,
2013-02-04 18:42:00,9.0,-1.0,-100.00,East,90,0.0,1.0,61,-99.99,,,-99.99,,2013-02-05 00:42:00,
2013-02-04 18:52:00,9.0,-1.0,-100.00,East,90,0.0,1.0,61,-99.99,,,-99.99,,2013-02-05 00:52:00,
2013-02-04 19:01:00,9.0,-1.0,-100.00,East,90,0.0,1.0,61,-99.99,,,-99.99,,2013-02-05 01:01:00,
2013-02-04 19:33:00,9.0,0.0,-100.00,NW,310,0.0,3.0,66,-99.99,,,-99.99,,2013-02-05 01:33:00,
2013-02-04 19:42:00,9.0,0.0,-100.00,NW,310,0.0,3.0,66,-99.99,,,-99.99,,2013-02-05 01:42:00,
2013-02-04 19:52:00,9.0,0.0,-100.00,NW,310,0.0,3.0,66,-99.99,,,-99.99,,2013-02-05 01:52:00,
2013-02-04 20:01:00,9.0,0.0,-100.00,NW,310,0.0,3.0,66,-99.99,,,-99.99,,2013-02-05 02:01:00,
2013-02-04 20:32:00,9.0,0.0,-100.00,NW,305,0.0,2.0,68,-99.99,,,-99.99,,2013-02-05 02:32:00,
2013-02-04 20:42:00,9.0,0.0,-100.00,NW,305,0.0,2.0,68,-99.99,,,-99.99,,2013-02-05 02:42:00,
2013-02-04 20:52:00,9.0,0.0,-100.00,NW,305,0.0,2.0,68,-99.99,,,-99.99,,2013-02-05 02:52:00,
2013-02-04 21:02:00,9.0,0.0,-100.00,NW,305,0.0,2.0,68,-99.99,,,-99.99,,2013-02-05 03:02:00,
2013-02-04 21:32:00,7.0,-1.0,-100.00,NW,310,0.0,1.0,70,-99.99,,,-99.99,,2013-02-05 03:32:00,
2013-02-04 21:42:00,7.0,-1.0,-100.00,NW,310,0.0,1.0,70,-99.99,,,-99.99,,2013-02-05 03:42:00,
2013-02-04 21:52:00,7.0,-1.0,-100.00,NW,310,0.0,1.0,70,-99.99,,,-99.99,,2013-02-05 03:52:00,
2013-02-04 22:01:00,7.0,-1.0,-100.00,NW,310,0.0,1.0,70,-99.99,,,-99.99,,2013-02-05 04:01:00,
2013-02-04 22:10:00,5.0,-2.0,-100.00,NW,305,1.0,4.0,72,-99.99,,,-99.99,,2013-02-05 04:10:00,
2013-02-04 22:32:00,5.0,-2.0,-100.00,NW,305,1.0,4.0,72,-99.99,,,-99.99,,2013-02-05 04:32:00,
2013-02-04 22:42:00,5.0,-2.0,-100.00,NW,305,1.0,4.0,72,-99.99,,,-99.99,,2013-02-05 04:42:00,
2013-02-04 22:52:00,5.0,-2.0,-100.00,NW,305,1.0,4.0,72,-99.99,,,-99.99,,2013-02-05 04:52:00,
2013-02-04 23:02:00,5.0,-2.0,-100.00,NW,305,1.0,4.0,72,-99.99,,,-99.99,,2013-02-05 05:02:00,
2013-02-04 23:32:00,6.0,-1.0,-100.00,SSE,160,0.0,2.0,72,-99.99,,,-99.99,,2013-02-05 05:32:00,
2013-02-04 23:42:00,6.0,-1.0,-100.00,SSE,160,0.0,2.0,72,-99.99,,,-99.99,,2013-02-05 05:42:00,
2013-02-04 23:52:00,6.0,-1.0,-100.00,SSE,160,0.0,2.0,72,-99.99,,,-99.99,,2013-02-05 05:52:00,